createdAt,value
2022-12-25T00:13:33.019Z,11.11
2022-12-25T00:28:23.154Z,11.05
2022-12-25T00:43:15.760Z,11.00
2022-12-25T00:58:07.079Z,10.97
2022-12-25T01:12:57.542Z,10.96
2022-12-25T01:27:48.915Z,11.02
2022-12-25T01:42:40.684Z,11.00
2022-12-25T01:57:32.788Z,11.02
2022-12-25T02:12:25.157Z,11.08
2022-12-25T02:27:19.006Z,11.09
2022-12-25T02:42:13.166Z,11.04
2022-12-25T02:57:21.885Z,10.89
2022-12-25T03:12:39.155Z,10.75
2022-12-25T03:27:35.560Z,10.74
2022-12-25T03:42:41.299Z,10.64
2022-12-25T03:57:55.085Z,10.58
2022-12-25T04:13:11.448Z,10.65
2022-12-25T04:28:26.498Z,10.71
2022-12-25T04:43:23.092Z,10.66
2022-12-25T04:58:14.265Z,10.53
2022-12-25T05:13:05.056Z,10.35
2022-12-25T05:27:56.250Z,10.23
2022-12-25T05:42:47.115Z,10.15
2022-12-25T05:57:38.683Z,10.23
2022-12-25T06:12:29.657Z,10.28
2022-12-25T06:27:21.371Z,10.40
2022-12-25T06:42:12.551Z,10.32
2022-12-25T06:57:02.524Z,10.16
2022-12-25T07:11:53.779Z,10.12
2022-12-25T07:26:45.165Z,10.15
2022-12-25T07:41:36.222Z,10.05
2022-12-25T07:56:27.014Z,10.07
2022-12-25T08:11:18.089Z,10.20
2022-12-25T08:26:13.107Z,10.34
2022-12-25T08:41:05.696Z,10.42
2022-12-25T08:55:59.467Z,10.45
2022-12-25T09:10:58.510Z,10.69
2022-12-25T09:25:49.041Z,10.96
2022-12-25T09:40:40.890Z,11.15
2022-12-25T09:55:37.788Z,11.25
2022-12-25T10:10:41.175Z,11.39
2022-12-25T10:25:34.516Z,11.60
2022-12-25T10:40:26.589Z,11.94
2022-12-25T10:55:23.498Z,12.23
2022-12-25T11:10:16.378Z,12.47
2022-12-25T11:25:14.544Z,12.66
2022-12-25T11:40:14.615Z,12.82
2022-12-25T11:55:19.969Z,12.92
2022-12-25T12:10:18.546Z,13.28
2022-12-25T12:25:16.148Z,13.60
2022-12-25T12:40:09.843Z,13.81
2022-12-25T12:55:02.293Z,13.95
2022-12-25T13:10:08.737Z,14.14
2022-12-25T13:25:04.448Z,14.13
2022-12-25T13:39:58.688Z,14.11
2022-12-25T13:54:52.986Z,14.12
2022-12-25T14:09:45.502Z,14.18
2022-12-25T14:24:40.013Z,14.16
2022-12-25T14:39:37.810Z,14.02
2022-12-25T14:54:33.069Z,13.77
2022-12-25T15:09:23.782Z,13.55
2022-12-25T15:24:13.770Z,13.32
2022-12-25T15:39:04.664Z,13.11
2022-12-25T15:53:55.545Z,12.91
2022-12-25T16:08:46.649Z,12.72
2022-12-25T16:23:38.201Z,12.53
2022-12-25T16:38:29.518Z,12.39
2022-12-25T16:53:20.544Z,12.29
2022-12-25T17:08:11.953Z,12.16
2022-12-25T17:23:01.850Z,12.06
2022-12-25T17:37:53.414Z,11.88
2022-12-25T17:52:43.601Z,11.66
2022-12-25T18:07:35.455Z,11.63
2022-12-25T18:22:26.227Z,11.40
2022-12-25T18:37:17.584Z,11.25
2022-12-25T18:52:48.335Z,11.17
2022-12-25T19:07:00.567Z,11.14
2022-12-25T19:21:54.596Z,11.03
2022-12-25T19:36:48.621Z,11.02
2022-12-25T19:51:39.739Z,10.92
2022-12-25T20:06:30.556Z,10.80
2022-12-25T20:21:21.966Z,11.04
2022-12-25T20:36:13.728Z,11.23
2022-12-25T20:51:14.638Z,11.31
2022-12-25T21:06:10.139Z,11.40
2022-12-25T21:21:01.656Z,11.50
2022-12-25T21:35:52.916Z,11.77
2022-12-25T21:51:02.501Z,12.03
2022-12-25T22:06:21.489Z,12.10
2022-12-25T22:21:18.294Z,12.06
2022-12-25T22:36:12.929Z,12.04
2022-12-25T22:51:04.024Z,12.00
2022-12-25T23:05:55.497Z,12.37
2022-12-25T23:21:06.216Z,12.50
2022-12-25T23:36:02.419Z,12.19
2022-12-25T23:50:53.211Z,12.16
